sensor_id;sensor_type;location;lat;lon;timestamp;P1;durP1;ratioP1;P2;durP2;ratioP2
20545;SDS011;10431;50.228;9.112;2023-07-31T00:00:56;5.15;;;1.45;;
20545;SDS011;10431;50.228;9.112;2023-07-31T00:03:22;2.33;;;1.50;;
20545;SDS011;10431;50.228;9.112;2023-07-31T00:05:48;2.35;;;1.40;;
20545;SDS011;10431;50.228;9.112;2023-07-31T00:08:14;2.20;;;1.33;;
20545;SDS011;10431;50.228;9.112;2023-07-31T00:10:41;3.25;;;1.48;;
20545;SDS011;10431;50.228;9.112;2023-07-31T00:13:07;2.28;;;1.40;;
20545;SDS011;10431;50.228;9.112;2023-07-31T00:15:33;1.55;;;1.30;;
20545;SDS011;10431;50.228;9.112;2023-07-31T00:17:59;2.53;;;1.58;;
20545;SDS011;10431;50.228;9.112;2023-07-31T00:20:26;5.10;;;1.42;;
20545;SDS011;10431;50.228;9.112;2023-07-31T00:22:53;4.47;;;1.40;;
20545;SDS011;10431;50.228;9.112;2023-07-31T00:25:19;3.72;;;1.83;;
20545;SDS011;10431;50.228;9.112;2023-07-31T00:27:45;2.75;;;1.38;;
20545;SDS011;10431;50.228;9.112;2023-07-31T00:30:11;2.70;;;1.48;;
20545;SDS011;10431;50.228;9.112;2023-07-31T00:32:37;2.05;;;1.60;;
20545;SDS011;10431;50.228;9.112;2023-07-31T00:35:04;2.38;;;1.33;;
20545;SDS011;10431;50.228;9.112;2023-07-31T00:37:30;3.13;;;1.30;;
20545;SDS011;10431;50.228;9.112;2023-07-31T00:39:56;5.18;;;1.92;;
20545;SDS011;10431;50.228;9.112;2023-07-31T00:42:24;2.60;;;1.55;;
20545;SDS011;10431;50.228;9.112;2023-07-31T00:44:50;4.53;;;1.65;;
20545;SDS011;10431;50.228;9.112;2023-07-31T00:47:17;2.83;;;1.70;;
20545;SDS011;10431;50.228;9.112;2023-07-31T00:49:43;5.22;;;1.63;;
20545;SDS011;10431;50.228;9.112;2023-07-31T00:52:09;2.33;;;1.40;;
20545;SDS011;10431;50.228;9.112;2023-07-31T00:54:36;3.40;;;1.58;;
20545;SDS011;10431;50.228;9.112;2023-07-31T00:57:02;2.17;;;1.30;;
20545;SDS011;10431;50.228;9.112;2023-07-31T00:59:29;3.33;;;1.40;;
20545;SDS011;10431;50.228;9.112;2023-07-31T01:01:55;3.35;;;1.52;;
20545;SDS011;10431;50.228;9.112;2023-07-31T01:04:21;3.00;;;1.50;;
20545;SDS011;10431;50.228;9.112;2023-07-31T01:09:56;2.67;;;1.40;;
20545;SDS011;10431;50.228;9.112;2023-07-31T01:12:32;1.55;;;1.33;;
20545;SDS011;10431;50.228;9.112;2023-07-31T01:17:31;3.75;;;1.65;;
20545;SDS011;10431;50.228;9.112;2023-07-31T01:19:59;4.22;;;1.30;;
20545;SDS011;10431;50.228;9.112;2023-07-31T01:22:30;2.42;;;1.45;;
20545;SDS011;10431;50.228;9.112;2023-07-31T01:25:15;3.70;;;1.38;;
20545;SDS011;10431;50.228;9.112;2023-07-31T01:28:07;1.92;;;1.40;;
20545;SDS011;10431;50.228;9.112;2023-07-31T01:30:40;3.03;;;1.50;;
20545;SDS011;10431;50.228;9.112;2023-07-31T01:33:08;3.25;;;1.50;;
20545;SDS011;10431;50.228;9.112;2023-07-31T01:35:36;2.55;;;1.60;;
20545;SDS011;10431;50.228;9.112;2023-07-31T01:38:04;1.85;;;1.40;;
20545;SDS011;10431;50.228;9.112;2023-07-31T01:40:30;4.15;;;1.52;;
20545;SDS011;10431;50.228;9.112;2023-07-31T01:42:57;2.53;;;1.30;;
20545;SDS011;10431;50.228;9.112;2023-07-31T01:45:23;1.90;;;1.33;;
20545;SDS011;10431;50.228;9.112;2023-07-31T01:47:49;3.67;;;1.50;;
20545;SDS011;10431;50.228;9.112;2023-07-31T01:50:16;2.15;;;1.35;;
20545;SDS011;10431;50.228;9.112;2023-07-31T01:52:42;3.22;;;1.30;;
20545;SDS011;10431;50.228;9.112;2023-07-31T01:55:08;1.90;;;1.58;;
20545;SDS011;10431;50.228;9.112;2023-07-31T01:57:36;2.03;;;1.30;;
20545;SDS011;10431;50.228;9.112;2023-07-31T02:00:02;2.35;;;1.30;;
20545;SDS011;10431;50.228;9.112;2023-07-31T02:02:37;2.72;;;1.52;;
20545;SDS011;10431;50.228;9.112;2023-07-31T02:05:04;6.28;;;1.38;;
20545;SDS011;10431;50.228;9.112;2023-07-31T02:07:30;4.65;;;1.35;;
20545;SDS011;10431;50.228;9.112;2023-07-31T02:09:57;2.20;;;1.80;;
20545;SDS011;10431;50.228;9.112;2023-07-31T02:12:23;2.35;;;1.50;;
20545;SDS011;10431;50.228;9.112;2023-07-31T02:14:49;3.28;;;1.40;;
20545;SDS011;10431;50.228;9.112;2023-07-31T02:17:15;4.70;;;1.60;;
20545;SDS011;10431;50.228;9.112;2023-07-31T02:19:41;1.60;;;1.30;;
20545;SDS011;10431;50.228;9.112;2023-07-31T02:22:08;2.63;;;1.27;;
20545;SDS011;10431;50.228;9.112;2023-07-31T02:24:34;2.15;;;1.20;;
20545;SDS011;10431;50.228;9.112;2023-07-31T02:27:00;5.38;;;1.45;;
20545;SDS011;10431;50.228;9.112;2023-07-31T02:29:26;2.53;;;1.25;;
20545;SDS011;10431;50.228;9.112;2023-07-31T02:31:53;2.08;;;1.10;;
20545;SDS011;10431;50.228;9.112;2023-07-31T02:34:19;1.88;;;1.30;;
20545;SDS011;10431;50.228;9.112;2023-07-31T02:36:46;2.88;;;1.60;;
20545;SDS011;10431;50.228;9.112;2023-07-31T02:39:12;1.30;;;1.00;;
20545;SDS011;10431;50.228;9.112;2023-07-31T02:41:38;1.98;;;1.17;;
20545;SDS011;10431;50.228;9.112;2023-07-31T02:44:04;3.13;;;1.70;;
20545;SDS011;10431;50.228;9.112;2023-07-31T02:46:30;4.15;;;1.38;;
20545;SDS011;10431;50.228;9.112;2023-07-31T02:48:57;1.95;;;1.50;;
20545;SDS011;10431;50.228;9.112;2023-07-31T02:51:23;2.65;;;1.33;;
20545;SDS011;10431;50.228;9.112;2023-07-31T02:53:49;2.15;;;1.40;;
20545;SDS011;10431;50.228;9.112;2023-07-31T02:56:16;1.65;;;1.17;;
20545;SDS011;10431;50.228;9.112;2023-07-31T02:58:42;5.13;;;1.30;;
20545;SDS011;10431;50.228;9.112;2023-07-31T03:01:08;3.55;;;1.30;;
20545;SDS011;10431;50.228;9.112;2023-07-31T03:03:34;3.22;;;1.30;;
20545;SDS011;10431;50.228;9.112;2023-07-31T03:06:00;6.05;;;1.80;;
20545;SDS011;10431;50.228;9.112;2023-07-31T03:08:27;2.28;;;1.67;;
20545;SDS011;10431;50.228;9.112;2023-07-31T03:10:53;2.90;;;1.65;;
20545;SDS011;10431;50.228;9.112;2023-07-31T03:13:19;1.65;;;1.10;;
20545;SDS011;10431;50.228;9.112;2023-07-31T03:15:45;2.05;;;1.48;;
20545;SDS011;10431;50.228;9.112;2023-07-31T03:18:11;4.47;;;1.60;;
20545;SDS011;10431;50.228;9.112;2023-07-31T03:20:41;1.45;;;1.33;;
20545;SDS011;10431;50.228;9.112;2023-07-31T03:23:09;2.17;;;1.30;;
20545;SDS011;10431;50.228;9.112;2023-07-31T03:25:35;2.10;;;1.40;;
20545;SDS011;10431;50.228;9.112;2023-07-31T03:28:01;1.60;;;1.33;;
20545;SDS011;10431;50.228;9.112;2023-07-31T03:30:29;2.25;;;1.42;;
20545;SDS011;10431;50.228;9.112;2023-07-31T03:32:55;2.05;;;1.30;;
20545;SDS011;10431;50.228;9.112;2023-07-31T03:35:21;2.70;;;1.50;;
20545;SDS011;10431;50.228;9.112;2023-07-31T03:37:48;2.72;;;1.55;;
20545;SDS011;10431;50.228;9.112;2023-07-31T03:40:14;2.17;;;1.20;;
20545;SDS011;10431;50.228;9.112;2023-07-31T03:42:40;2.75;;;1.40;;
20545;SDS011;10431;50.228;9.112;2023-07-31T03:45:06;2.38;;;1.10;;
20545;SDS011;10431;50.228;9.112;2023-07-31T03:47:33;2.95;;;1.30;;
20545;SDS011;10431;50.228;9.112;2023-07-31T03:49:59;1.50;;;1.10;;
20545;SDS011;10431;50.228;9.112;2023-07-31T03:52:26;2.35;;;1.20;;
20545;SDS011;10431;50.228;9.112;2023-07-31T03:54:52;3.80;;;1.55;;
20545;SDS011;10431;50.228;9.112;2023-07-31T03:57:18;4.50;;;1.50;;
20545;SDS011;10431;50.228;9.112;2023-07-31T03:59:44;2.63;;;1.40;;
20545;SDS011;10431;50.228;9.112;2023-07-31T04:02:10;2.90;;;1.40;;
20545;SDS011;10431;50.228;9.112;2023-07-31T04:04:37;1.40;;;1.20;;
20545;SDS011;10431;50.228;9.112;2023-07-31T04:07:03;3.05;;;1.30;;
20545;SDS011;10431;50.228;9.112;2023-07-31T04:09:29;1.67;;;1.23;;
20545;SDS011;10431;50.228;9.112;2023-07-31T04:11:55;3.22;;;1.40;;
20545;SDS011;10431;50.228;9.112;2023-07-31T04:14:22;3.20;;;1.63;;
20545;SDS011;10431;50.228;9.112;2023-07-31T04:16:48;2.90;;;1.20;;
20545;SDS011;10431;50.228;9.112;2023-07-31T04:19:16;3.67;;;1.30;;
20545;SDS011;10431;50.228;9.112;2023-07-31T04:21:42;1.55;;;1.08;;
20545;SDS011;10431;50.228;9.112;2023-07-31T04:24:09;1.95;;;1.27;;
20545;SDS011;10431;50.228;9.112;2023-07-31T04:26:35;2.30;;;1.10;;
20545;SDS011;10431;50.228;9.112;2023-07-31T04:29:01;3.10;;;1.33;;
20545;SDS011;10431;50.228;9.112;2023-07-31T04:31:27;1.70;;;1.23;;
20545;SDS011;10431;50.228;9.112;2023-07-31T04:33:53;2.10;;;1.42;;
20545;SDS011;10431;50.228;9.112;2023-07-31T04:36:20;3.03;;;1.27;;
20545;SDS011;10431;50.228;9.112;2023-07-31T04:38:46;2.05;;;1.30;;
20545;SDS011;10431;50.228;9.112;2023-07-31T04:41:12;1.95;;;1.38;;
20545;SDS011;10431;50.228;9.112;2023-07-31T04:43:38;2.17;;;1.25;;
20545;SDS011;10431;50.228;9.112;2023-07-31T04:46:05;7.90;;;1.48;;
20545;SDS011;10431;50.228;9.112;2023-07-31T04:48:31;2.88;;;1.20;;
20545;SDS011;10431;50.228;9.112;2023-07-31T04:50:57;1.40;;;1.17;;
20545;SDS011;10431;50.228;9.112;2023-07-31T04:53:24;1.52;;;1.23;;
20545;SDS011;10431;50.228;9.112;2023-07-31T04:55:50;1.38;;;1.20;;
20545;SDS011;10431;50.228;9.112;2023-07-31T04:58:16;1.77;;;1.33;;
20545;SDS011;10431;50.228;9.112;2023-07-31T05:00:42;2.75;;;1.50;;
20545;SDS011;10431;50.228;9.112;2023-07-31T05:03:08;1.60;;;1.05;;
20545;SDS011;10431;50.228;9.112;2023-07-31T05:05:36;1.33;;;1.10;;
20545;SDS011;10431;50.228;9.112;2023-07-31T05:08:02;2.25;;;1.50;;
20545;SDS011;10431;50.228;9.112;2023-07-31T05:10:29;1.70;;;0.95;;
20545;SDS011;10431;50.228;9.112;2023-07-31T05:12:55;2.65;;;1.20;;
20545;SDS011;10431;50.228;9.112;2023-07-31T05:15:21;2.28;;;1.50;;
20545;SDS011;10431;50.228;9.112;2023-07-31T05:17:48;1.65;;;1.40;;
20545;SDS011;10431;50.228;9.112;2023-07-31T05:20:14;2.15;;;1.17;;
20545;SDS011;10431;50.228;9.112;2023-07-31T05:22:40;2.20;;;1.30;;
20545;SDS011;10431;50.228;9.112;2023-07-31T05:25:07;4.30;;;1.40;;
20545;SDS011;10431;50.228;9.112;2023-07-31T05:27:33;3.33;;;1.77;;
20545;SDS011;10431;50.228;9.112;2023-07-31T05:29:59;1.63;;;1.30;;
20545;SDS011;10431;50.228;9.112;2023-07-31T05:32:26;1.55;;;1.25;;
20545;SDS011;10431;50.228;9.112;2023-07-31T05:34:52;2.08;;;1.25;;
20545;SDS011;10431;50.228;9.112;2023-07-31T05:37:19;2.38;;;1.50;;
20545;SDS011;10431;50.228;9.112;2023-07-31T05:39:45;2.83;;;1.17;;
20545;SDS011;10431;50.228;9.112;2023-07-31T05:42:11;2.85;;;1.65;;
20545;SDS011;10431;50.228;9.112;2023-07-31T05:44:37;1.65;;;1.27;;
20545;SDS011;10431;50.228;9.112;2023-07-31T05:47:04;6.72;;;1.88;;
20545;SDS011;10431;50.228;9.112;2023-07-31T05:49:30;2.63;;;1.50;;
20545;SDS011;10431;50.228;9.112;2023-07-31T05:51:56;1.48;;;1.25;;
20545;SDS011;10431;50.228;9.112;2023-07-31T05:54:22;1.92;;;1.27;;
20545;SDS011;10431;50.228;9.112;2023-07-31T05:56:49;2.63;;;1.67;;
20545;SDS011;10431;50.228;9.112;2023-07-31T05:59:15;2.28;;;1.63;;
20545;SDS011;10431;50.228;9.112;2023-07-31T06:01:42;3.85;;;1.60;;
20545;SDS011;10431;50.228;9.112;2023-07-31T06:04:08;3.25;;;1.70;;
20545;SDS011;10431;50.228;9.112;2023-07-31T06:06:34;1.63;;;1.45;;
20545;SDS011;10431;50.228;9.112;2023-07-31T06:09:00;2.80;;;1.65;;
20545;SDS011;10431;50.228;9.112;2023-07-31T06:11:27;3.08;;;1.98;;
20545;SDS011;10431;50.228;9.112;2023-07-31T06:13:53;5.40;;;2.03;;
20545;SDS011;10431;50.228;9.112;2023-07-31T06:16:19;2.78;;;2.10;;
20545;SDS011;10431;50.228;9.112;2023-07-31T06:18:47;4.13;;;2.10;;
20545;SDS011;10431;50.228;9.112;2023-07-31T06:21:13;4.07;;;1.95;;
20545;SDS011;10431;50.228;9.112;2023-07-31T06:23:39;4.68;;;2.28;;
20545;SDS011;10431;50.228;9.112;2023-07-31T06:26:05;3.47;;;2.05;;
20545;SDS011;10431;50.228;9.112;2023-07-31T06:28:32;6.25;;;1.73;;
20545;SDS011;10431;50.228;9.112;2023-07-31T06:30:58;3.85;;;1.90;;
20545;SDS011;10431;50.228;9.112;2023-07-31T06:33:24;3.55;;;1.83;;
20545;SDS011;10431;50.228;9.112;2023-07-31T06:35:51;3.25;;;2.10;;
20545;SDS011;10431;50.228;9.112;2023-07-31T06:38:22;4.25;;;1.92;;
20545;SDS011;10431;50.228;9.112;2023-07-31T06:40:50;3.45;;;2.17;;
20545;SDS011;10431;50.228;9.112;2023-07-31T06:43:16;2.88;;;1.98;;
20545;SDS011;10431;50.228;9.112;2023-07-31T06:45:42;3.78;;;2.38;;
20545;SDS011;10431;50.228;9.112;2023-07-31T06:48:09;5.25;;;1.92;;
20545;SDS011;10431;50.228;9.112;2023-07-31T06:50:35;3.40;;;2.20;;
20545;SDS011;10431;50.228;9.112;2023-07-31T06:53:02;3.47;;;2.00;;
20545;SDS011;10431;50.228;9.112;2023-07-31T06:55:28;5.13;;;2.58;;
20545;SDS011;10431;50.228;9.112;2023-07-31T06:57:55;3.63;;;2.22;;
20545;SDS011;10431;50.228;9.112;2023-07-31T07:00:22;5.85;;;2.28;;
20545;SDS011;10431;50.228;9.112;2023-07-31T07:02:48;4.57;;;2.20;;
20545;SDS011;10431;50.228;9.112;2023-07-31T07:05:15;4.55;;;2.30;;
20545;SDS011;10431;50.228;9.112;2023-07-31T07:07:43;3.30;;;2.03;;
20545;SDS011;10431;50.228;9.112;2023-07-31T07:10:09;3.83;;;2.30;;
20545;SDS011;10431;50.228;9.112;2023-07-31T07:12:36;3.97;;;2.50;;
20545;SDS011;10431;50.228;9.112;2023-07-31T07:15:02;4.55;;;2.55;;
20545;SDS011;10431;50.228;9.112;2023-07-31T07:17:29;4.85;;;2.20;;
20545;SDS011;10431;50.228;9.112;2023-07-31T07:19:57;5.75;;;2.35;;
20545;SDS011;10431;50.228;9.112;2023-07-31T07:22:23;4.05;;;2.55;;
20545;SDS011;10431;50.228;9.112;2023-07-31T07:24:51;5.15;;;2.00;;
20545;SDS011;10431;50.228;9.112;2023-07-31T07:27:17;4.60;;;2.42;;
20545;SDS011;10431;50.228;9.112;2023-07-31T07:29:43;4.10;;;2.25;;
20545;SDS011;10431;50.228;9.112;2023-07-31T07:32:11;3.67;;;2.20;;
20545;SDS011;10431;50.228;9.112;2023-07-31T07:34:37;6.95;;;2.30;;
20545;SDS011;10431;50.228;9.112;2023-07-31T07:37:03;4.90;;;2.75;;
20545;SDS011;10431;50.228;9.112;2023-07-31T07:39:30;3.55;;;2.25;;
20545;SDS011;10431;50.228;9.112;2023-07-31T07:41:56;3.75;;;2.10;;
20545;SDS011;10431;50.228;9.112;2023-07-31T07:44:22;3.80;;;2.25;;
20545;SDS011;10431;50.228;9.112;2023-07-31T07:46:48;3.35;;;1.98;;
20545;SDS011;10431;50.228;9.112;2023-07-31T07:49:14;3.47;;;2.33;;
20545;SDS011;10431;50.228;9.112;2023-07-31T07:51:41;5.88;;;2.30;;
20545;SDS011;10431;50.228;9.112;2023-07-31T07:54:07;4.85;;;2.50;;
20545;SDS011;10431;50.228;9.112;2023-07-31T07:56:33;3.33;;;2.10;;
20545;SDS011;10431;50.228;9.112;2023-07-31T07:59:01;3.00;;;2.10;;
20545;SDS011;10431;50.228;9.112;2023-07-31T08:01:27;2.67;;;2.42;;
20545;SDS011;10431;50.228;9.112;2023-07-31T08:03:54;7.47;;;2.60;;
20545;SDS011;10431;50.228;9.112;2023-07-31T08:06:20;5.43;;;2.60;;
20545;SDS011;10431;50.228;9.112;2023-07-31T08:08:47;7.60;;;3.05;;
20545;SDS011;10431;50.228;9.112;2023-07-31T08:11:13;6.85;;;3.00;;
20545;SDS011;10431;50.228;9.112;2023-07-31T08:13:39;8.45;;;3.17;;
20545;SDS011;10431;50.228;9.112;2023-07-31T08:16:05;8.50;;;3.45;;
20545;SDS011;10431;50.228;9.112;2023-07-31T08:18:31;8.07;;;3.42;;
20545;SDS011;10431;50.228;9.112;2023-07-31T08:20:58;8.32;;;3.17;;
20545;SDS011;10431;50.228;9.112;2023-07-31T08:23:24;6.65;;;3.30;;
20545;SDS011;10431;50.228;9.112;2023-07-31T08:25:50;8.05;;;3.75;;
20545;SDS011;10431;50.228;9.112;2023-07-31T08:28:17;7.18;;;3.17;;
20545;SDS011;10431;50.228;9.112;2023-07-31T08:30:43;8.95;;;3.70;;
20545;SDS011;10431;50.228;9.112;2023-07-31T08:33:09;7.95;;;3.40;;
20545;SDS011;10431;50.228;9.112;2023-07-31T08:35:35;6.93;;;3.13;;
20545;SDS011;10431;50.228;9.112;2023-07-31T08:38:02;5.43;;;3.50;;
20545;SDS011;10431;50.228;9.112;2023-07-31T08:40:28;9.43;;;3.53;;
20545;SDS011;10431;50.228;9.112;2023-07-31T08:42:55;9.65;;;3.45;;
20545;SDS011;10431;50.228;9.112;2023-07-31T08:45:27;13.20;;;3.50;;
20545;SDS011;10431;50.228;9.112;2023-07-31T08:47:55;9.30;;;3.63;;
20545;SDS011;10431;50.228;9.112;2023-07-31T08:50:22;7.47;;;3.08;;
20545;SDS011;10431;50.228;9.112;2023-07-31T08:52:49;12.35;;;3.60;;
20545;SDS011;10431;50.228;9.112;2023-07-31T08:55:17;5.25;;;3.30;;
20545;SDS011;10431;50.228;9.112;2023-07-31T08:57:49;7.30;;;3.05;;
20545;SDS011;10431;50.228;9.112;2023-07-31T09:00:17;6.43;;;3.08;;
20545;SDS011;10431;50.228;9.112;2023-07-31T09:02:48;16.40;;;2.88;;
20545;SDS011;10431;50.228;9.112;2023-07-31T09:05:23;6.43;;;3.10;;
20545;SDS011;10431;50.228;9.112;2023-07-31T09:07:51;6.30;;;3.17;;
20545;SDS011;10431;50.228;9.112;2023-07-31T09:10:18;5.93;;;3.00;;
20545;SDS011;10431;50.228;9.112;2023-07-31T09:12:44;7.15;;;2.95;;
20545;SDS011;10431;50.228;9.112;2023-07-31T09:15:12;6.57;;;2.88;;
20545;SDS011;10431;50.228;9.112;2023-07-31T09:17:38;7.05;;;3.17;;
20545;SDS011;10431;50.228;9.112;2023-07-31T09:20:12;5.97;;;2.90;;
20545;SDS011;10431;50.228;9.112;2023-07-31T09:22:46;7.03;;;3.15;;
20545;SDS011;10431;50.228;9.112;2023-07-31T09:27:48;7.82;;;2.80;;
20545;SDS011;10431;50.228;9.112;2023-07-31T09:30:16;6.35;;;3.28;;
20545;SDS011;10431;50.228;9.112;2023-07-31T09:32:44;6.97;;;2.95;;
20545;SDS011;10431;50.228;9.112;2023-07-31T09:35:19;8.10;;;3.10;;
20545;SDS011;10431;50.228;9.112;2023-07-31T09:37:50;10.43;;;3.35;;
20545;SDS011;10431;50.228;9.112;2023-07-31T09:40:34;8.60;;;2.97;;
20545;SDS011;10431;50.228;9.112;2023-07-31T09:43:02;6.50;;;2.90;;
20545;SDS011;10431;50.228;9.112;2023-07-31T09:45:30;13.35;;;3.25;;
20545;SDS011;10431;50.228;9.112;2023-07-31T09:47:59;7.00;;;2.85;;
20545;SDS011;10431;50.228;9.112;2023-07-31T09:50:25;9.68;;;3.30;;
20545;SDS011;10431;50.228;9.112;2023-07-31T09:52:52;13.23;;;3.42;;
20545;SDS011;10431;50.228;9.112;2023-07-31T09:55:18;7.15;;;3.08;;
20545;SDS011;10431;50.228;9.112;2023-07-31T09:57:46;10.73;;;3.42;;
20545;SDS011;10431;50.228;9.112;2023-07-31T10:00:15;8.18;;;3.15;;
20545;SDS011;10431;50.228;9.112;2023-07-31T10:02:46;4.32;;;2.75;;
20545;SDS011;10431;50.228;9.112;2023-07-31T10:05:14;5.40;;;2.88;;
20545;SDS011;10431;50.228;9.112;2023-07-31T10:07:51;8.02;;;3.25;;
20545;SDS011;10431;50.228;9.112;2023-07-31T10:10:20;6.50;;;2.80;;
20545;SDS011;10431;50.228;9.112;2023-07-31T10:12:48;6.68;;;3.17;;
20545;SDS011;10431;50.228;9.112;2023-07-31T10:15:15;7.10;;;3.10;;
20545;SDS011;10431;50.228;9.112;2023-07-31T10:17:42;6.75;;;2.80;;
20545;SDS011;10431;50.228;9.112;2023-07-31T10:20:09;9.00;;;3.15;;
20545;SDS011;10431;50.228;9.112;2023-07-31T10:22:36;7.28;;;2.97;;
20545;SDS011;10431;50.228;9.112;2023-07-31T10:25:03;8.25;;;3.35;;
20545;SDS011;10431;50.228;9.112;2023-07-31T10:27:29;6.57;;;3.15;;
20545;SDS011;10431;50.228;9.112;2023-07-31T10:29:56;4.20;;;3.08;;
20545;SDS011;10431;50.228;9.112;2023-07-31T10:32:24;7.10;;;3.38;;
20545;SDS011;10431;50.228;9.112;2023-07-31T10:34:51;7.65;;;2.90;;
20545;SDS011;10431;50.228;9.112;2023-07-31T10:37:30;8.27;;;3.25;;
20545;SDS011;10431;50.228;9.112;2023-07-31T10:40:06;6.95;;;3.03;;
20545;SDS011;10431;50.228;9.112;2023-07-31T10:42:45;5.63;;;3.13;;
20545;SDS011;10431;50.228;9.112;2023-07-31T10:45:13;5.07;;;2.60;;
20545;SDS011;10431;50.228;9.112;2023-07-31T10:47:44;5.95;;;3.40;;
20545;SDS011;10431;50.228;9.112;2023-07-31T10:50:16;6.82;;;3.00;;
20545;SDS011;10431;50.228;9.112;2023-07-31T10:52:56;7.28;;;3.30;;
20545;SDS011;10431;50.228;9.112;2023-07-31T10:57:53;6.68;;;2.88;;
20545;SDS011;10431;50.228;9.112;2023-07-31T11:00:24;7.30;;;2.67;;
20545;SDS011;10431;50.228;9.112;2023-07-31T11:13:28;7.28;;;2.85;;
20545;SDS011;10431;50.228;9.112;2023-07-31T11:15:59;10.07;;;2.95;;
20545;SDS011;10431;50.228;9.112;2023-07-31T11:18:26;12.75;;;3.83;;
20545;SDS011;10431;50.228;9.112;2023-07-31T11:20:53;8.13;;;3.22;;
20545;SDS011;10431;50.228;9.112;2023-07-31T11:23:19;6.63;;;3.15;;
20545;SDS011;10431;50.228;9.112;2023-07-31T11:25:47;7.90;;;2.92;;
20545;SDS011;10431;50.228;9.112;2023-07-31T11:28:13;8.82;;;2.97;;
20545;SDS011;10431;50.228;9.112;2023-07-31T11:30:41;8.27;;;3.25;;
20545;SDS011;10431;50.228;9.112;2023-07-31T11:33:09;8.65;;;3.00;;
20545;SDS011;10431;50.228;9.112;2023-07-31T11:35:41;11.55;;;3.13;;
20545;SDS011;10431;50.228;9.112;2023-07-31T11:38:12;13.75;;;3.10;;
20545;SDS011;10431;50.228;9.112;2023-07-31T11:40:49;7.53;;;3.10;;
20545;SDS011;10431;50.228;9.112;2023-07-31T11:43:17;6.90;;;3.05;;
20545;SDS011;10431;50.228;9.112;2023-07-31T11:46:02;7.97;;;3.42;;
20545;SDS011;10431;50.228;9.112;2023-07-31T11:48:29;9.20;;;3.30;;
20545;SDS011;10431;50.228;9.112;2023-07-31T11:51:02;5.05;;;2.75;;
20545;SDS011;10431;50.228;9.112;2023-07-31T11:53:31;5.57;;;2.60;;
20545;SDS011;10431;50.228;9.112;2023-07-31T11:56:05;5.32;;;2.85;;
20545;SDS011;10431;50.228;9.112;2023-07-31T11:58:34;8.05;;;3.08;;
20545;SDS011;10431;50.228;9.112;2023-07-31T12:01:01;7.50;;;2.72;;
20545;SDS011;10431;50.228;9.112;2023-07-31T12:03:29;7.55;;;2.72;;
20545;SDS011;10431;50.228;9.112;2023-07-31T12:05:55;11.52;;;2.78;;
20545;SDS011;10431;50.228;9.112;2023-07-31T12:08:22;8.55;;;2.92;;
20545;SDS011;10431;50.228;9.112;2023-07-31T12:10:53;5.10;;;2.75;;
20545;SDS011;10431;50.228;9.112;2023-07-31T12:13:23;5.57;;;2.65;;
20545;SDS011;10431;50.228;9.112;2023-07-31T12:15:58;7.18;;;2.60;;
20545;SDS011;10431;50.228;9.112;2023-07-31T12:18:27;10.20;;;3.45;;
20545;SDS011;10431;50.228;9.112;2023-07-31T12:20:56;5.35;;;3.00;;
20545;SDS011;10431;50.228;9.112;2023-07-31T12:23:24;4.32;;;2.42;;
20545;SDS011;10431;50.228;9.112;2023-07-31T12:28:27;6.65;;;2.75;;
20545;SDS011;10431;50.228;9.112;2023-07-31T12:30:56;5.93;;;2.80;;
20545;SDS011;10431;50.228;9.112;2023-07-31T12:33:29;6.80;;;2.90;;
20545;SDS011;10431;50.228;9.112;2023-07-31T12:35:57;5.10;;;2.80;;
20545;SDS011;10431;50.228;9.112;2023-07-31T12:38:23;7.72;;;3.30;;
20545;SDS011;10431;50.228;9.112;2023-07-31T12:40:49;9.52;;;3.33;;
20545;SDS011;10431;50.228;9.112;2023-07-31T12:43:15;5.35;;;2.88;;
20545;SDS011;10431;50.228;9.112;2023-07-31T12:45:41;5.90;;;2.70;;
20545;SDS011;10431;50.228;9.112;2023-07-31T12:48:08;5.88;;;2.60;;
20545;SDS011;10431;50.228;9.112;2023-07-31T12:50:34;5.40;;;2.53;;
20545;SDS011;10431;50.228;9.112;2023-07-31T12:53:02;6.43;;;2.67;;
20545;SDS011;10431;50.228;9.112;2023-07-31T12:55:31;6.18;;;2.78;;
20545;SDS011;10431;50.228;9.112;2023-07-31T12:58:00;3.78;;;2.83;;
20545;SDS011;10431;50.228;9.112;2023-07-31T13:00:26;7.05;;;3.17;;
20545;SDS011;10431;50.228;9.112;2023-07-31T13:02:52;6.18;;;2.65;;
20545;SDS011;10431;50.228;9.112;2023-07-31T13:05:19;7.40;;;3.13;;
20545;SDS011;10431;50.228;9.112;2023-07-31T13:07:48;5.75;;;2.70;;
20545;SDS011;10431;50.228;9.112;2023-07-31T13:10:15;3.70;;;2.40;;
20545;SDS011;10431;50.228;9.112;2023-07-31T13:12:41;7.07;;;2.50;;
20545;SDS011;10431;50.228;9.112;2023-07-31T13:15:07;4.00;;;2.30;;
20545;SDS011;10431;50.228;9.112;2023-07-31T13:17:35;6.70;;;2.70;;
20545;SDS011;10431;50.228;9.112;2023-07-31T13:20:02;4.60;;;2.70;;
20545;SDS011;10431;50.228;9.112;2023-07-31T13:22:29;4.78;;;2.97;;
20545;SDS011;10431;50.228;9.112;2023-07-31T13:24:55;3.30;;;2.40;;
20545;SDS011;10431;50.228;9.112;2023-07-31T13:27:21;6.35;;;2.88;;
20545;SDS011;10431;50.228;9.112;2023-07-31T13:29:48;6.10;;;2.75;;
20545;SDS011;10431;50.228;9.112;2023-07-31T13:32:15;4.88;;;2.53;;
20545;SDS011;10431;50.228;9.112;2023-07-31T13:34:42;4.15;;;2.47;;
20545;SDS011;10431;50.228;9.112;2023-07-31T13:37:09;6.45;;;2.83;;
20545;SDS011;10431;50.228;9.112;2023-07-31T13:39:35;6.03;;;2.90;;
20545;SDS011;10431;50.228;9.112;2023-07-31T13:42:02;5.40;;;2.90;;
20545;SDS011;10431;50.228;9.112;2023-07-31T13:44:29;5.20;;;2.50;;
20545;SDS011;10431;50.228;9.112;2023-07-31T13:46:55;3.35;;;2.38;;
20545;SDS011;10431;50.228;9.112;2023-07-31T13:49:21;3.78;;;2.47;;
20545;SDS011;10431;50.228;9.112;2023-07-31T13:51:48;2.80;;;2.08;;
20545;SDS011;10431;50.228;9.112;2023-07-31T13:54:14;5.38;;;2.58;;
20545;SDS011;10431;50.228;9.112;2023-07-31T13:56:41;4.57;;;2.42;;
20545;SDS011;10431;50.228;9.112;2023-07-31T13:59:08;2.85;;;1.92;;
20545;SDS011;10431;50.228;9.112;2023-07-31T14:01:34;4.82;;;2.38;;
20545;SDS011;10431;50.228;9.112;2023-07-31T14:04:00;5.50;;;3.03;;
20545;SDS011;10431;50.228;9.112;2023-07-31T14:06:27;8.02;;;2.38;;
20545;SDS011;10431;50.228;9.112;2023-07-31T14:08:53;3.08;;;2.28;;
20545;SDS011;10431;50.228;9.112;2023-07-31T14:11:21;4.45;;;2.60;;
20545;SDS011;10431;50.228;9.112;2023-07-31T14:13:49;5.35;;;2.70;;
20545;SDS011;10431;50.228;9.112;2023-07-31T14:16:16;4.85;;;2.45;;
20545;SDS011;10431;50.228;9.112;2023-07-31T14:18:43;3.08;;;2.20;;
20545;SDS011;10431;50.228;9.112;2023-07-31T14:21:11;4.57;;;2.50;;
20545;SDS011;10431;50.228;9.112;2023-07-31T14:23:37;4.50;;;2.45;;
20545;SDS011;10431;50.228;9.112;2023-07-31T14:26:04;4.35;;;2.22;;
20545;SDS011;10431;50.228;9.112;2023-07-31T14:28:30;7.13;;;2.38;;
20545;SDS011;10431;50.228;9.112;2023-07-31T14:30:56;3.55;;;2.30;;
20545;SDS011;10431;50.228;9.112;2023-07-31T14:33:23;3.45;;;2.38;;
20545;SDS011;10431;50.228;9.112;2023-07-31T14:35:49;3.40;;;2.30;;
20545;SDS011;10431;50.228;9.112;2023-07-31T14:38:16;4.28;;;2.70;;
20545;SDS011;10431;50.228;9.112;2023-07-31T14:40:43;4.47;;;2.65;;
20545;SDS011;10431;50.228;9.112;2023-07-31T14:43:09;3.97;;;3.03;;
20545;SDS011;10431;50.228;9.112;2023-07-31T14:45:35;4.28;;;2.33;;
20545;SDS011;10431;50.228;9.112;2023-07-31T14:48:01;3.92;;;2.58;;
20545;SDS011;10431;50.228;9.112;2023-07-31T14:50:28;4.53;;;2.70;;
20545;SDS011;10431;50.228;9.112;2023-07-31T14:52:54;4.65;;;2.38;;
20545;SDS011;10431;50.228;9.112;2023-07-31T14:55:21;3.90;;;2.10;;
20545;SDS011;10431;50.228;9.112;2023-07-31T14:57:47;4.22;;;2.35;;
20545;SDS011;10431;50.228;9.112;2023-07-31T15:00:13;4.70;;;2.60;;
20545;SDS011;10431;50.228;9.112;2023-07-31T15:02:40;3.90;;;2.47;;
20545;SDS011;10431;50.228;9.112;2023-07-31T15:05:07;3.90;;;2.70;;
20545;SDS011;10431;50.228;9.112;2023-07-31T15:07:33;5.18;;;2.40;;
20545;SDS011;10431;50.228;9.112;2023-07-31T15:10:03;5.45;;;2.70;;
20545;SDS011;10431;50.228;9.112;2023-07-31T15:12:29;4.15;;;2.17;;